createdAt,value
2018-05-24T00:02:38.530Z,2.87
2018-05-24T00:05:40.968Z,2.73
2018-05-24T00:08:43.418Z,3.77
2018-05-24T00:11:45.906Z,3.83
2018-05-24T00:14:48.365Z,2.40
2018-05-24T00:17:50.816Z,3.50
2018-05-24T00:20:54.050Z,3.10
2018-05-24T00:23:56.503Z,2.87
2018-05-24T00:26:58.969Z,3.23
2018-05-24T00:30:01.435Z,3.20
2018-05-24T00:33:03.883Z,3.27
2018-05-24T00:36:06.330Z,3.03
2018-05-24T00:39:08.790Z,2.87
2018-05-24T00:42:11.249Z,3.93
2018-05-24T00:45:14.476Z,3.67
2018-05-24T00:48:16.944Z,2.63
2018-05-24T00:51:19.386Z,3.20
2018-05-24T00:54:22.601Z,2.63
2018-05-24T00:57:25.062Z,2.80
2018-05-24T01:00:28.309Z,3.53
2018-05-24T01:03:30.769Z,3.17
2018-05-24T01:06:33.217Z,4.40
2018-05-24T01:09:35.657Z,4.37
2018-05-24T01:12:38.117Z,3.70
2018-05-24T01:15:40.611Z,4.47
2018-05-24T01:18:43.027Z,4.17
2018-05-24T01:24:54.493Z,4.07
2018-05-24T01:27:56.951Z,4.70
2018-05-24T01:30:59.406Z,3.73
2018-05-24T01:34:01.859Z,3.97
2018-05-24T01:37:16.221Z,3.83
2018-05-24T01:40:19.420Z,4.13
2018-05-24T01:43:21.881Z,4.87
2018-05-24T01:46:25.106Z,4.63
2018-05-24T01:49:27.549Z,4.60
2018-05-24T01:52:30.773Z,4.83
2018-05-24T01:55:33.236Z,4.23
2018-05-24T01:58:35.707Z,4.30
2018-05-24T02:01:38.161Z,7.93
2018-05-24T02:04:41.386Z,5.13
2018-05-24T02:07:43.862Z,4.30
2018-05-24T02:10:46.317Z,4.97
2018-05-24T02:13:49.555Z,4.37
2018-05-24T02:16:52.014Z,4.43
2018-05-24T02:19:54.463Z,4.57
2018-05-24T02:22:57.681Z,4.40
2018-05-24T02:26:00.162Z,5.40
2018-05-24T02:29:02.657Z,4.57
2018-05-24T02:32:05.849Z,5.33
2018-05-24T02:35:08.309Z,4.87
2018-05-24T02:38:10.776Z,5.20
2018-05-24T02:41:13.236Z,5.90
2018-05-24T02:44:16.453Z,6.43
2018-05-24T02:47:19.439Z,5.03
2018-05-24T02:50:21.882Z,6.37
2018-05-24T02:53:24.331Z,5.17
2018-05-24T02:56:26.797Z,5.97
2018-05-24T02:59:29.254Z,5.10
2018-05-24T03:02:31.726Z,5.27
2018-05-24T03:05:34.931Z,5.20
2018-05-24T03:08:37.406Z,4.70
2018-05-24T03:11:39.882Z,5.80
2018-05-24T03:14:42.322Z,5.97
2018-05-24T03:17:44.778Z,5.40
2018-05-24T03:20:47.223Z,6.10
2018-05-24T03:23:49.681Z,5.50
2018-05-24T03:26:52.142Z,6.70
2018-05-24T03:29:55.349Z,5.80
2018-05-24T03:32:57.802Z,7.57
2018-05-24T03:36:01.017Z,5.60
2018-05-24T03:39:03.465Z,5.90
2018-05-24T03:42:05.934Z,5.80
2018-05-24T03:45:08.386Z,6.13
2018-05-24T03:48:10.862Z,7.63
2018-05-24T03:51:13.325Z,6.90
2018-05-24T03:54:15.789Z,6.93
2018-05-24T03:57:18.253Z,6.50
2018-05-24T04:00:33.390Z,6.23
2018-05-24T04:03:47.645Z,6.77
2018-05-24T04:06:50.098Z,7.17
2018-05-24T04:09:52.549Z,7.33
2018-05-24T04:12:55.023Z,6.53
2018-05-24T04:15:57.462Z,6.70
2018-05-24T04:19:00.685Z,7.03
2018-05-24T04:22:03.138Z,7.40
2018-05-24T04:25:06.355Z,6.37
2018-05-24T04:28:08.813Z,6.30
2018-05-24T04:31:12.026Z,8.77
2018-05-24T04:34:14.489Z,6.33
2018-05-24T04:37:17.718Z,6.70
2018-05-24T04:40:20.174Z,8.63
2018-05-24T04:43:22.654Z,7.43
2018-05-24T04:46:25.160Z,8.10
2018-05-24T04:49:27.613Z,8.13
2018-05-24T04:52:30.118Z,6.90
2018-05-24T04:55:33.317Z,7.07
2018-05-24T04:58:35.785Z,7.33
2018-05-24T05:01:38.248Z,7.40
2018-05-24T05:08:26.419Z,8.93
2018-05-24T05:11:28.873Z,6.77
2018-05-24T05:14:31.355Z,8.33
2018-05-24T05:17:34.178Z,7.57
2018-05-24T05:20:36.669Z,7.40
2018-05-24T05:23:39.131Z,7.20
2018-05-24T05:26:41.596Z,6.63
2018-05-24T05:29:44.055Z,7.30
2018-05-24T05:32:46.534Z,8.17
2018-05-24T05:35:48.973Z,7.87
2018-05-24T05:38:52.213Z,7.77
2018-05-24T05:41:54.649Z,7.90
2018-05-24T05:44:57.890Z,6.80
2018-05-24T05:48:00.364Z,7.27
2018-05-24T05:51:02.823Z,7.10
2018-05-24T05:54:05.278Z,8.03
2018-05-24T05:57:08.487Z,8.20
2018-05-24T06:00:10.998Z,8.03
2018-05-24T06:03:13.481Z,7.43
2018-05-24T06:06:15.987Z,7.10
2018-05-24T06:09:18.450Z,8.43
2018-05-24T06:12:20.899Z,8.53
2018-05-24T06:15:23.361Z,7.57
2018-05-24T06:18:25.808Z,7.87
2018-05-24T06:21:29.060Z,7.90
2018-05-24T06:24:31.497Z,7.87
2018-05-24T06:27:33.954Z,10.60
2018-05-24T06:30:37.185Z,7.77
2018-05-24T06:33:39.645Z,8.37
2018-05-24T06:36:42.089Z,7.77
2018-05-24T06:39:44.562Z,8.40
2018-05-24T06:42:47.011Z,7.80
2018-05-24T06:45:49.468Z,8.17
2018-05-24T06:48:51.930Z,8.30
2018-05-24T06:51:54.390Z,10.63
2018-05-24T06:54:57.621Z,8.07
2018-05-24T06:58:00.071Z,8.23
2018-05-24T07:01:02.528Z,8.53
2018-05-24T07:04:05.762Z,8.23
2018-05-24T07:07:08.225Z,8.40
2018-05-24T07:10:10.686Z,7.63
2018-05-24T07:13:13.922Z,8.07
2018-05-24T07:16:16.382Z,11.10
2018-05-24T07:19:18.850Z,7.73
2018-05-24T07:22:21.314Z,8.57
2018-05-24T07:25:24.533Z,7.70
2018-05-24T07:28:26.998Z,7.87
2018-05-24T07:31:29.477Z,7.90
2018-05-24T07:34:32.707Z,9.27
2018-05-24T07:37:35.161Z,8.90
2018-05-24T07:40:37.630Z,9.47
2018-05-24T07:43:40.075Z,8.13
2018-05-24T07:46:43.301Z,7.93
2018-05-24T07:49:45.784Z,10.77
2018-05-24T07:52:48.238Z,7.97
2018-05-24T07:55:50.827Z,10.40
2018-05-24T07:58:54.038Z,8.53
2018-05-24T08:01:56.493Z,8.27
2018-05-24T08:04:58.948Z,7.80
2018-05-24T08:08:02.181Z,8.70
2018-05-24T08:11:04.634Z,8.77
2018-05-24T08:14:07.842Z,8.40
2018-05-24T08:17:10.305Z,9.00
2018-05-24T08:20:13.537Z,8.60
2018-05-24T08:23:16.006Z,8.70
2018-05-24T08:26:18.450Z,8.83
2018-05-24T08:29:20.889Z,9.07
2018-05-24T08:32:23.359Z,9.93
2018-05-24T08:35:25.821Z,9.27
2018-05-24T08:38:28.284Z,10.43
2018-05-24T08:41:30.736Z,10.63
2018-05-24T08:44:33.198Z,10.23
2018-05-24T08:47:36.422Z,9.60
2018-05-24T08:50:38.886Z,13.30
2018-05-24T08:53:41.338Z,9.40
2018-05-24T08:56:43.807Z,11.37
2018-05-24T08:59:46.264Z,10.50
2018-05-24T09:02:48.720Z,9.80
2018-05-24T09:05:51.177Z,9.53
2018-05-24T09:08:53.647Z,10.40
2018-05-24T09:11:57.407Z,10.33
2018-05-24T09:14:59.870Z,10.50
2018-05-24T09:18:02.329Z,12.13
2018-05-24T09:21:04.810Z,10.37
2018-05-24T09:24:07.275Z,11.10
2018-05-24T09:27:09.726Z,10.90
2018-05-24T09:30:12.193Z,11.80
2018-05-24T09:33:15.418Z,13.10
2018-05-24T09:36:17.970Z,14.17
2018-05-24T09:39:20.330Z,14.90
2018-05-24T09:42:26.717Z,16.03
2018-05-24T09:45:29.182Z,14.97
2018-05-24T09:48:31.652Z,16.93
2018-05-24T09:51:34.105Z,17.57
2018-05-24T09:54:36.566Z,17.83
2018-05-24T10:00:48.006Z,17.90
2018-05-24T10:03:50.470Z,18.63
2018-05-24T10:06:52.946Z,20.57
2018-05-24T10:09:55.407Z,20.90
2018-05-24T10:12:57.873Z,24.37
2018-05-24T10:16:00.348Z,24.13
2018-05-24T10:19:02.797Z,22.90
2018-05-24T10:22:06.034Z,22.97
2018-05-24T10:25:08.483Z,23.50
2018-05-24T10:28:10.963Z,23.33
2018-05-24T10:31:13.437Z,23.53
2018-05-24T10:34:15.880Z,23.93
2018-05-24T10:37:26.225Z,25.80
2018-05-24T10:40:28.792Z,24.93
2018-05-24T10:43:31.442Z,25.13
2018-05-24T10:46:34.106Z,27.13
2018-05-24T10:49:36.671Z,28.40
2018-05-24T10:52:42.733Z,27.87
2018-05-24T10:55:46.001Z,24.77
2018-05-24T10:58:48.476Z,26.50
2018-05-24T11:01:50.933Z,23.87
2018-05-24T11:04:53.640Z,26.03
2018-05-24T11:07:56.097Z,28.70
2018-05-24T11:10:58.553Z,28.07
2018-05-24T11:14:01.026Z,27.07
2018-05-24T11:17:03.481Z,25.90
2018-05-24T11:20:06.756Z,26.30
2018-05-24T11:23:09.275Z,27.40
2018-05-24T11:26:11.745Z,26.77
2018-05-24T11:29:14.218Z,27.80
2018-05-24T11:32:16.686Z,27.73
2018-05-24T11:35:20.201Z,25.93
2018-05-24T11:38:22.827Z,25.77
2018-05-24T11:41:25.352Z,28.20
2018-05-24T11:44:28.750Z,25.67
2018-05-24T11:47:31.543Z,26.07
2018-05-24T11:50:34.025Z,24.00
2018-05-24T11:53:36.509Z,23.63
2018-05-24T11:56:38.974Z,23.53
2018-05-24T11:59:41.478Z,23.03
2018-05-24T12:02:43.941Z,22.93
2018-05-24T12:05:46.422Z,21.93
2018-05-24T12:08:48.895Z,22.07
2018-05-24T12:11:51.386Z,20.03
2018-05-24T12:14:53.842Z,20.50
2018-05-24T12:17:56.323Z,19.50
2018-05-24T12:20:58.781Z,20.10
2018-05-24T12:24:01.250Z,20.23
2018-05-24T12:27:04.482Z,19.57
2018-05-24T12:30:06.937Z,20.43
2018-05-24T12:33:09.401Z,20.13
2018-05-24T12:36:11.850Z,20.50
2018-05-24T12:39:15.822Z,20.87
2018-05-24T12:42:18.285Z,20.67
2018-05-24T12:45:20.734Z,23.30
2018-05-24T12:48:23.981Z,20.77
2018-05-24T12:51:26.422Z,21.80
2018-05-24T12:54:28.897Z,21.10
2018-05-24T12:57:31.371Z,22.13
2018-05-24T13:00:34.590Z,21.77
2018-05-24T13:03:37.059Z,21.40
2018-05-24T13:06:39.518Z,21.67
2018-05-24T13:09:42.741Z,20.90
2018-05-24T13:12:45.209Z,22.27
2018-05-24T13:15:47.667Z,22.30
2018-05-24T13:18:50.126Z,21.13
2018-05-24T13:21:53.354Z,20.73
2018-05-24T13:24:55.842Z,20.93
2018-05-24T13:27:58.305Z,20.93
2018-05-24T13:31:00.769Z,20.67
2018-05-24T13:34:03.237Z,20.20
2018-05-24T13:37:05.700Z,22.93
2018-05-24T13:40:08.178Z,20.80
2018-05-24T13:43:10.653Z,21.53
2018-05-24T13:46:13.106Z,22.70
2018-05-24T13:49:15.566Z,21.03
2018-05-24T13:52:18.026Z,22.90
2018-05-24T13:55:20.505Z,23.20
2018-05-24T13:58:22.974Z,22.00
2018-05-24T14:01:25.428Z,24.23
2018-05-24T14:04:28.670Z,25.70
2018-05-24T14:07:31.125Z,24.43
2018-05-24T14:10:33.599Z,25.10
2018-05-24T14:13:36.063Z,26.20
2018-05-24T14:16:38.513Z,26.27
2018-05-24T14:19:40.980Z,25.93
2018-05-24T14:22:43.440Z,27.00
2018-05-24T14:25:45.915Z,32.80
2018-05-24T14:28:48.389Z,27.53
2018-05-24T14:31:50.865Z,26.60
2018-05-24T14:34:53.366Z,27.20
2018-05-24T14:37:55.835Z,28.07
2018-05-24T14:40:58.296Z,27.33
2018-05-24T14:44:00.761Z,29.07
2018-05-24T14:47:03.228Z,28.80
2018-05-24T14:50:05.712Z,29.93
2018-05-24T14:53:08.162Z,30.57
2018-05-24T14:56:10.629Z,28.87
2018-05-24T14:59:13.861Z,27.27
2018-05-24T15:02:16.319Z,28.10
2018-05-24T15:05:18.795Z,26.17
2018-05-24T15:08:21.284Z,26.47
2018-05-24T15:11:23.742Z,25.73
2018-05-24T15:14:26.205Z,24.87
2018-05-24T15:17:29.422Z,23.40
2018-05-24T15:20:31.885Z,23.17
2018-05-24T15:23:34.354Z,22.17
2018-05-24T15:26:37.570Z,21.87
2018-05-24T15:29:40.040Z,21.93
2018-05-24T15:32:42.522Z,21.33
2018-05-24T15:35:45.744Z,18.97
2018-05-24T15:38:48.197Z,18.40
2018-05-24T15:41:50.662Z,17.07
2018-05-24T15:44:53.126Z,17.13
2018-05-24T15:47:55.577Z,16.73
2018-05-24T15:51:00.063Z,16.73
2018-05-24T15:54:02.541Z,17.23
2018-05-24T15:57:05.001Z,17.17
2018-05-24T16:00:07.549Z,18.27
2018-05-24T16:03:11.073Z,16.63
2018-05-24T16:06:13.734Z,17.77
2018-05-24T16:09:17.090Z,15.60
2018-05-24T16:12:29.701Z,16.60
2018-05-24T16:15:32.384Z,15.60
2018-05-24T16:18:34.850Z,15.90
2018-05-24T16:21:37.313Z,15.37
2018-05-24T16:24:39.793Z,15.03
2018-05-24T16:27:42.251Z,13.43
2018-05-24T16:30:45.485Z,13.90
2018-05-24T16:33:47.939Z,13.87
2018-05-24T16:36:50.410Z,13.10
2018-05-24T16:39:52.874Z,13.90
2018-05-24T16:42:56.094Z,13.53
2018-05-24T16:45:58.574Z,13.57
2018-05-24T16:49:01.039Z,13.57
2018-05-24T16:52:03.526Z,14.07
2018-05-24T16:55:06.003Z,12.87
2018-05-24T16:58:08.471Z,13.53
2018-05-24T17:01:10.924Z,14.20
2018-05-24T17:04:13.386Z,17.57
2018-05-24T17:07:15.839Z,14.33
2018-05-24T17:10:18.302Z,14.53
2018-05-24T17:13:21.522Z,14.90
2018-05-24T17:19:57.540Z,14.80
2018-05-24T17:23:00.006Z,13.93
2018-05-24T17:26:02.457Z,13.77
2018-05-24T17:29:04.914Z,13.87
2018-05-24T17:32:07.454Z,14.90
2018-05-24T17:35:09.921Z,14.30
2018-05-24T17:38:16.707Z,13.33
2018-05-24T17:41:19.929Z,13.47
2018-05-24T17:44:22.383Z,13.43
2018-05-24T17:47:24.841Z,14.67
2018-05-24T17:50:28.061Z,16.40
2018-05-24T17:53:30.537Z,15.23
2018-05-24T17:56:33.742Z,14.07
2018-05-24T17:59:36.207Z,14.63
2018-05-24T18:02:38.672Z,16.60
2018-05-24T18:05:41.149Z,17.67
2018-05-24T18:08:43.610Z,16.50
2018-05-24T18:11:46.838Z,15.30
2018-05-24T18:14:49.349Z,18.23
2018-05-24T18:17:51.770Z,19.60
2018-05-24T18:20:54.994Z,14.73
2018-05-24T18:23:57.458Z,14.80
2018-05-24T18:26:59.940Z,17.73
2018-05-24T18:30:11.051Z,16.97
2018-05-24T18:33:13.538Z,17.67
2018-05-24T18:36:16.006Z,17.47
2018-05-24T18:39:18.459Z,18.70
2018-05-24T18:42:20.930Z,16.10
2018-05-24T18:45:29.301Z,15.67
2018-05-24T18:48:31.765Z,17.17
2018-05-24T18:51:34.233Z,16.33
2018-05-24T18:54:36.685Z,16.83
2018-05-24T18:57:39.174Z,16.80
2018-05-24T19:00:41.656Z,17.23
2018-05-24T19:03:44.112Z,17.43
2018-05-24T19:06:46.594Z,17.70
2018-05-24T19:09:49.053Z,15.97
2018-05-24T19:12:51.533Z,17.53
2018-05-24T19:15:54.014Z,18.07
2018-05-24T19:18:56.470Z,16.37
2018-05-24T19:21:59.100Z,16.87
2018-05-24T19:25:01.679Z,17.30
2018-05-24T19:28:04.335Z,18.07
2018-05-24T19:31:06.838Z,17.20
2018-05-24T19:34:09.298Z,17.37
2018-05-24T19:37:11.778Z,18.03
2018-05-24T19:40:15.030Z,17.27
2018-05-24T19:43:17.503Z,17.70
2018-05-24T19:46:20.745Z,18.67
2018-05-24T19:49:23.202Z,17.17
2018-05-24T19:52:25.661Z,21.47
2018-05-24T19:55:28.118Z,20.30
2018-05-24T19:58:31.346Z,19.63
2018-05-24T20:01:33.805Z,21.03
2018-05-24T20:04:37.042Z,24.33
2018-05-24T20:07:39.511Z,22.30
2018-05-24T20:10:41.963Z,22.07
2018-05-24T20:13:44.452Z,22.33
2018-05-24T20:16:46.925Z,22.40
2018-05-24T20:19:49.361Z,22.93
2018-05-24T20:22:51.855Z,22.97
2018-05-24T20:25:54.293Z,22.73
2018-05-24T20:28:56.761Z,22.63
2018-05-24T20:31:59.221Z,22.50
2018-05-24T20:35:01.682Z,22.80
2018-05-24T20:38:04.162Z,22.87
2018-05-24T20:41:06.633Z,20.73
2018-05-24T20:44:09.099Z,21.53
2018-05-24T20:47:11.561Z,20.97
2018-05-24T20:50:14.810Z,23.10
2018-05-24T20:53:17.265Z,22.63
2018-05-24T20:56:19.765Z,23.33
2018-05-24T20:59:22.958Z,21.30
2018-05-24T21:06:00.149Z,23.47
2018-05-24T21:09:02.622Z,24.67
2018-05-24T21:12:05.105Z,23.73
2018-05-24T21:15:07.566Z,24.67
2018-05-24T21:18:10.047Z,26.37
2018-05-24T21:21:13.290Z,23.73
2018-05-24T21:24:15.782Z,25.83
2018-05-24T21:27:18.249Z,25.47
2018-05-24T21:30:20.740Z,24.90
2018-05-24T21:33:23.202Z,24.77
2018-05-24T21:36:25.662Z,25.43
2018-05-24T21:39:28.130Z,24.50
2018-05-24T21:42:30.617Z,25.20
2018-05-24T21:45:33.108Z,25.63
2018-05-24T21:48:35.553Z,27.30
2018-05-24T21:51:38.010Z,27.47
2018-05-24T21:54:41.229Z,24.60
2018-05-24T21:57:43.689Z,24.33
2018-05-24T22:00:50.998Z,24.97
2018-05-24T22:03:53.457Z,28.40
2018-05-24T22:06:55.914Z,32.23
2018-05-24T22:09:59.159Z,34.07
2018-05-24T22:13:01.618Z,29.93
2018-05-24T22:16:04.082Z,30.60
2018-05-24T22:19:06.542Z,28.67
2018-05-24T22:22:09.761Z,28.37
2018-05-24T22:25:12.216Z,26.23
2018-05-24T22:28:14.681Z,25.73
2018-05-24T22:31:17.897Z,25.03
2018-05-24T22:34:20.372Z,25.50
2018-05-24T22:37:22.826Z,24.53
2018-05-24T22:40:26.057Z,25.73
2018-05-24T22:43:28.529Z,26.10
2018-05-24T22:46:30.978Z,27.33
2018-05-24T22:49:34.201Z,29.47
2018-05-24T22:52:36.653Z,28.03
2018-05-24T22:55:39.881Z,29.40
2018-05-24T22:58:42.340Z,32.07
2018-05-24T23:01:44.799Z,32.67
2018-05-24T23:04:48.035Z,32.53
2018-05-24T23:07:50.487Z,30.57
2018-05-24T23:10:52.950Z,32.07
2018-05-24T23:13:56.186Z,31.50
2018-05-24T23:16:58.631Z,28.90
2018-05-24T23:20:01.098Z,28.73
2018-05-24T23:23:04.338Z,29.70
2018-05-24T23:26:06.794Z,32.07
2018-05-24T23:29:09.263Z,34.80
2018-05-24T23:32:11.732Z,38.10
2018-05-24T23:35:14.209Z,37.93
2018-05-24T23:38:16.658Z,37.73
2018-05-24T23:41:19.899Z,37.90
2018-05-24T23:44:22.365Z,39.37
2018-05-24T23:47:24.819Z,40.53
2018-05-24T23:50:27.268Z,36.27
2018-05-24T23:53:29.738Z,38.03
2018-05-24T23:56:32.209Z,38.20
2018-05-24T23:59:34.690Z,37.23
